Terminal Aerodrome Forecast
Issued by NWS Twin Cities, MN

Home | Current Version | Previous Version | Graphics & Text | Print | Product List | Glossary On
Versions: 1 2 3 4 5 6 7 8 9 10 11 12 13 14 15 16 17 18 19 20 21 22 23 24 25 26 27
000
FTUS43 KMPX 122000 AAA
TAFMSP
TAF AMD
KMSP 122051Z 1221/1324 28007KT P6SM -SHRA BKN045 OVC080
     FM122300 29006KT P6SM SCT050 BKN100
     FM130200 29004KT P6SM FEW100
     FM131600 30012G20KT P6SM FEW060=

USA.gov is the U.S. government's official web portal to all federal, state and local government web resources and services.